createdAt,value
2019-03-30T00:00:52.073Z,91.32
2019-03-30T00:05:56.476Z,90.33
2019-03-30T00:11:00.912Z,91.75
2019-03-30T00:16:05.254Z,91.09
2019-03-30T00:21:09.601Z,89.72
2019-03-30T00:26:13.956Z,91.06
2019-03-30T00:31:18.329Z,90.86
2019-03-30T00:36:22.752Z,90.70
2019-03-30T00:41:27.673Z,91.28
2019-03-30T00:46:32.108Z,91.12
2019-03-30T00:51:36.491Z,91.12
2019-03-30T00:56:40.857Z,91.34
2019-03-30T01:01:45.204Z,89.76
2019-03-30T01:06:49.540Z,90.83
2019-03-30T01:11:53.892Z,90.32
2019-03-30T01:16:58.266Z,91.27
2019-03-30T01:22:02.625Z,90.66
2019-03-30T01:27:07.158Z,91.02
2019-03-30T01:32:12.503Z,92.07
2019-03-30T01:37:16.853Z,91.65
2019-03-30T01:42:21.214Z,93.05
2019-03-30T01:47:25.601Z,92.42
2019-03-30T01:52:29.939Z,92.56
2019-03-30T01:57:34.294Z,92.28
2019-03-30T02:02:38.722Z,91.51
2019-03-30T02:07:44.143Z,92.40
2019-03-30T02:12:48.501Z,92.83
2019-03-30T02:17:53.246Z,92.07
2019-03-30T02:22:57.596Z,92.94
2019-03-30T02:28:01.966Z,92.16
2019-03-30T02:33:06.521Z,93.05
2019-03-30T02:38:10.853Z,92.80
2019-03-30T02:43:15.323Z,93.09
2019-03-30T02:48:20.312Z,91.84
2019-03-30T02:53:24.720Z,92.84
2019-03-30T02:58:29.135Z,92.02
2019-03-30T03:03:33.446Z,92.16
2019-03-30T03:08:37.821Z,91.80
2019-03-30T03:13:42.139Z,91.47
2019-03-30T03:18:47.583Z,91.21
2019-03-30T03:23:51.928Z,91.08
2019-03-30T03:28:56.324Z,90.67
2019-03-30T03:34:00.732Z,92.21
2019-03-30T03:39:05.986Z,92.01
2019-03-30T03:44:10.421Z,93.46
2019-03-30T03:49:14.766Z,93.51
2019-03-30T03:54:19.293Z,93.45
2019-03-30T03:59:26.597Z,93.19
2019-03-30T04:04:31.328Z,93.32
2019-03-30T04:09:36.150Z,92.29
2019-03-30T04:14:43.747Z,92.33
2019-03-30T04:19:48.120Z,92.36
2019-03-30T04:24:52.513Z,92.03
2019-03-30T04:29:56.848Z,92.15
2019-03-30T04:35:01.294Z,91.69
2019-03-30T04:40:07.049Z,92.48
2019-03-30T04:45:11.435Z,93.42
2019-03-30T04:50:15.799Z,93.07
2019-03-30T04:55:20.199Z,92.31
2019-03-30T05:00:24.599Z,93.38
2019-03-30T05:05:28.963Z,92.37
2019-03-30T05:10:33.320Z,92.07
2019-03-30T05:15:37.662Z,92.47
2019-03-30T05:20:42.024Z,91.69
2019-03-30T05:25:46.380Z,91.54
2019-03-30T05:30:50.776Z,90.48
2019-03-30T05:35:55.207Z,89.86
2019-03-30T05:40:59.545Z,88.62
2019-03-30T05:46:03.955Z,88.34
2019-03-30T05:51:08.342Z,86.43
2019-03-30T05:56:12.710Z,88.02
2019-03-30T06:01:17.158Z,84.92
2019-03-30T06:06:22.603Z,84.02
2019-03-30T06:11:26.951Z,84.84
2019-03-30T06:16:31.301Z,83.22
2019-03-30T06:21:35.709Z,81.40
2019-03-30T06:26:40.071Z,79.57
2019-03-30T06:31:46.744Z,80.36
2019-03-30T06:36:50.502Z,78.92
2019-03-30T06:41:55.001Z,77.89
2019-03-30T06:46:59.389Z,76.23
2019-03-30T06:52:03.768Z,76.90
2019-03-30T06:57:08.191Z,75.03
2019-03-30T07:02:12.553Z,76.50
2019-03-30T07:07:17.416Z,74.15
2019-03-30T07:12:26.222Z,74.61
2019-03-30T07:17:30.593Z,73.46
2019-03-30T07:22:34.969Z,72.10
2019-03-30T07:27:39.355Z,70.54
2019-03-30T07:32:45.170Z,71.82
2019-03-30T07:37:49.461Z,70.01
2019-03-30T07:42:53.858Z,69.04
2019-03-30T07:47:58.249Z,69.94
2019-03-30T07:53:02.610Z,68.06
2019-03-30T07:58:07.038Z,68.34
2019-03-30T08:03:11.464Z,67.89
2019-03-30T08:08:17.464Z,66.81
2019-03-30T08:13:21.824Z,66.08
2019-03-30T08:18:26.210Z,66.50
2019-03-30T08:23:40.394Z,65.32
2019-03-30T08:28:36.656Z,66.95
2019-03-30T08:33:41.028Z,65.66
2019-03-30T08:38:45.392Z,64.98
2019-03-30T08:43:49.792Z,64.18
2019-03-30T08:48:54.182Z,64.38
2019-03-30T08:53:58.566Z,62.90
2019-03-30T08:59:02.978Z,63.94
2019-03-30T09:04:07.341Z,63.26
2019-03-30T09:09:11.720Z,63.04
2019-03-30T09:14:16.066Z,62.08
2019-03-30T09:19:20.427Z,62.35
2019-03-30T09:24:24.810Z,63.10
2019-03-30T09:29:29.165Z,61.86
2019-03-30T09:34:33.530Z,60.24
2019-03-30T09:39:37.990Z,60.00
2019-03-30T09:44:42.432Z,60.33
2019-03-30T09:49:47.034Z,60.05
2019-03-30T09:54:51.418Z,59.91
2019-03-30T09:59:56.838Z,58.06
2019-03-30T10:05:02.398Z,57.58
2019-03-30T10:10:07.510Z,57.37
2019-03-30T10:15:12.018Z,57.65
2019-03-30T10:20:18.997Z,55.25
2019-03-30T10:25:22.832Z,54.85
2019-03-30T10:30:27.338Z,53.32
2019-03-30T10:35:31.708Z,52.11
2019-03-30T10:40:36.048Z,52.36
2019-03-30T10:45:40.462Z,51.95
2019-03-30T10:50:44.819Z,52.01
2019-03-30T10:55:49.181Z,50.45
2019-03-30T11:00:53.551Z,49.99
2019-03-30T11:05:57.933Z,49.74
2019-03-30T11:11:02.269Z,50.41
2019-03-30T11:16:06.652Z,48.66
2019-03-30T11:21:11.025Z,48.61
2019-03-30T11:26:15.393Z,48.58
2019-03-30T11:31:19.728Z,48.14
2019-03-30T11:36:25.073Z,46.37
2019-03-30T11:41:29.443Z,47.39
2019-03-30T11:46:33.925Z,47.30
2019-03-30T11:51:38.336Z,47.35
2019-03-30T11:56:42.717Z,47.19
2019-03-30T12:01:47.127Z,46.05
2019-03-30T12:06:51.984Z,44.83
2019-03-30T12:11:56.491Z,46.21
2019-03-30T12:17:00.844Z,45.58
2019-03-30T12:22:05.224Z,45.09
2019-03-30T12:27:09.543Z,44.91
2019-03-30T12:32:13.918Z,44.61
2019-03-30T12:37:18.305Z,44.49
2019-03-30T12:42:22.674Z,45.54
2019-03-30T12:47:27.137Z,45.50
2019-03-30T12:52:31.511Z,45.16
2019-03-30T12:57:35.906Z,45.67
2019-03-30T13:02:40.285Z,46.33
2019-03-30T13:12:48.714Z,46.10
2019-03-30T13:17:53.086Z,46.39
2019-03-30T13:22:57.462Z,46.26
2019-03-30T13:28:01.835Z,47.33
2019-03-30T13:33:07.254Z,47.62
2019-03-30T13:38:12.603Z,47.62
2019-03-30T13:43:16.981Z,47.05
2019-03-30T13:48:21.335Z,48.12
2019-03-30T13:53:25.807Z,47.25
2019-03-30T13:58:30.136Z,48.10
2019-03-30T14:03:35.656Z,47.47
2019-03-30T14:08:40.270Z,47.26
2019-03-30T14:13:44.715Z,46.94
2019-03-30T14:18:49.195Z,47.58
2019-03-30T14:23:53.664Z,46.98
2019-03-30T14:28:58.191Z,46.98
2019-03-30T14:34:02.523Z,46.69
2019-03-30T14:39:07.477Z,46.83
2019-03-30T14:44:11.806Z,47.51
2019-03-30T14:49:16.271Z,46.93
2019-03-30T14:54:20.740Z,47.25
2019-03-30T14:59:25.108Z,46.65
2019-03-30T15:04:29.472Z,47.12
2019-03-30T15:09:33.832Z,46.83
2019-03-30T15:14:38.237Z,47.31
2019-03-30T15:19:42.619Z,47.53
2019-03-30T15:24:47.034Z,48.06
2019-03-30T15:29:52.579Z,46.97
2019-03-30T15:34:58.490Z,46.83
2019-03-30T15:40:02.991Z,46.83
2019-03-30T15:45:09.627Z,47.75
2019-03-30T15:50:14.373Z,47.08
2019-03-30T15:55:18.734Z,47.08
2019-03-30T16:00:23.081Z,47.63
2019-03-30T16:05:27.426Z,47.43
2019-03-30T16:10:31.861Z,48.08
2019-03-30T16:15:36.316Z,47.92
2019-03-30T16:20:40.785Z,47.89
2019-03-30T16:25:45.130Z,47.70
2019-03-30T16:30:49.489Z,48.15
2019-03-30T16:35:53.855Z,47.94
2019-03-30T16:40:58.216Z,48.52
2019-03-30T16:46:02.640Z,49.06
2019-03-30T16:51:07.179Z,48.65
2019-03-30T16:56:11.630Z,48.66
2019-03-30T17:01:16.008Z,48.81
2019-03-30T17:06:20.377Z,49.92
2019-03-30T17:11:24.914Z,49.28
2019-03-30T17:16:29.480Z,49.35
2019-03-30T17:21:33.890Z,49.45
2019-03-30T17:26:38.309Z,49.67
2019-03-30T17:31:42.843Z,50.45
2019-03-30T17:36:47.307Z,51.51
2019-03-30T17:41:51.725Z,52.64
2019-03-30T17:46:56.104Z,52.78
2019-03-30T17:52:00.562Z,52.87
2019-03-30T17:57:04.926Z,53.64
2019-03-30T18:02:09.289Z,53.71
2019-03-30T18:07:15.914Z,54.19
2019-03-30T18:12:20.608Z,54.70
2019-03-30T18:17:27.880Z,54.40
2019-03-30T18:22:33.798Z,55.79
2019-03-30T18:27:39.237Z,56.02
2019-03-30T18:32:44.689Z,56.34
2019-03-30T18:37:52.822Z,56.11
2019-03-30T18:43:01.975Z,56.72
2019-03-30T18:48:18.376Z,58.61
2019-03-30T18:53:26.131Z,59.86
2019-03-30T18:58:41.459Z,60.46
2019-03-30T19:03:39.769Z,61.03
2019-03-30T19:08:47.050Z,61.32
2019-03-30T19:13:57.845Z,61.54
2019-03-30T19:19:02.339Z,61.87
2019-03-30T19:24:06.941Z,62.26
2019-03-30T19:29:11.474Z,63.01
2019-03-30T19:34:15.927Z,63.81
2019-03-30T19:39:20.308Z,64.25
2019-03-30T19:44:24.651Z,64.23
2019-03-30T19:49:29.056Z,65.24
2019-03-30T19:54:33.447Z,65.57
2019-03-30T19:59:37.847Z,66.03
2019-03-30T20:04:42.217Z,66.02
2019-03-30T20:09:46.605Z,67.29
2019-03-30T20:14:51.007Z,67.62
2019-03-30T20:19:55.388Z,68.37
2019-03-30T20:24:59.750Z,69.95
2019-03-30T20:30:06.784Z,70.66
2019-03-30T20:35:11.354Z,69.98
2019-03-30T20:40:15.761Z,69.81
2019-03-30T20:45:20.143Z,69.17
2019-03-30T20:50:24.511Z,70.83
2019-03-30T20:55:28.892Z,72.97
2019-03-30T21:00:33.398Z,71.14
2019-03-30T21:05:37.770Z,72.03
2019-03-30T21:10:42.158Z,72.32
2019-03-30T21:15:46.531Z,72.85
2019-03-30T21:20:50.970Z,73.87
2019-03-30T21:25:55.354Z,74.24
2019-03-30T21:30:59.742Z,75.27
2019-03-30T21:36:04.131Z,76.54
2019-03-30T21:41:09.591Z,76.34
2019-03-30T21:46:13.971Z,77.45
2019-03-30T21:51:18.618Z,75.69
2019-03-30T21:56:23.030Z,75.64
2019-03-30T22:01:27.405Z,75.18
2019-03-30T22:06:31.815Z,74.74
2019-03-30T22:11:36.657Z,76.92
2019-03-30T22:16:41.094Z,76.57
2019-03-30T22:21:45.437Z,76.10
2019-03-30T22:26:49.828Z,75.86
2019-03-30T22:31:54.242Z,75.45
2019-03-30T22:36:58.629Z,75.86
2019-03-30T22:42:03.108Z,77.56
2019-03-30T22:47:07.454Z,76.10
2019-03-30T22:52:11.905Z,76.46
2019-03-30T22:57:16.284Z,77.43
2019-03-30T23:02:20.681Z,77.02
2019-03-30T23:07:25.065Z,77.90
2019-03-30T23:12:29.431Z,76.62
2019-03-30T23:17:33.788Z,77.42
2019-03-30T23:22:38.180Z,77.37
2019-03-30T23:27:42.561Z,75.91
2019-03-30T23:32:48.106Z,76.28
2019-03-30T23:37:52.448Z,78.35
2019-03-30T23:42:56.844Z,76.42
2019-03-30T23:48:01.468Z,76.50
2019-03-30T23:53:07.554Z,77.90
2019-03-30T23:58:13.256Z,77.85
